createdAt,value
2018-11-22T12:17:09.921Z,22.20
2018-11-22T12:19:38.408Z,21.00
2018-11-22T12:22:06.895Z,20.90
2018-11-22T12:24:35.607Z,19.50
2018-11-22T12:27:04.233Z,19.50
2018-11-22T12:29:32.725Z,19.43
2018-11-22T12:32:06.410Z,18.80
2018-11-22T12:34:40.247Z,19.77
2018-11-22T12:37:16.753Z,18.70
2018-11-22T12:39:45.317Z,19.57
2018-11-22T12:42:13.773Z,17.30
2018-11-22T12:44:42.231Z,18.50
2018-11-22T12:47:10.731Z,19.80
2018-11-22T12:49:39.177Z,17.10
2018-11-22T12:52:07.744Z,18.33
2018-11-22T12:54:37.331Z,19.97
2018-11-22T12:57:06.057Z,16.67
2018-11-22T12:59:34.515Z,18.83
2018-11-22T13:02:03.122Z,18.63
2018-11-22T13:04:31.626Z,18.90
2018-11-22T13:07:00.117Z,18.23
2018-11-22T13:09:28.577Z,18.70
2018-11-22T13:11:57.062Z,16.90
2018-11-22T13:14:25.527Z,16.97
2018-11-22T13:16:54.057Z,17.70
2018-11-22T13:19:22.520Z,18.90
2018-11-22T13:21:51.251Z,19.23
2018-11-22T13:24:19.756Z,19.37
2018-11-22T13:26:48.278Z,17.07
2018-11-22T13:29:17.741Z,19.50
2018-11-22T13:31:46.442Z,16.47
2018-11-22T13:34:15.110Z,17.23
2018-11-22T13:36:43.603Z,18.30
2018-11-22T13:39:12.380Z,17.20
2018-11-22T13:41:40.873Z,16.97
2018-11-22T13:44:09.386Z,19.47
2018-11-22T13:46:37.875Z,19.30
2018-11-22T13:49:06.823Z,19.03
2018-11-22T13:51:35.441Z,20.80
2018-11-22T13:54:03.948Z,18.77
2018-11-22T13:56:32.481Z,18.37
2018-11-22T13:59:01.018Z,18.40
2018-11-22T14:01:30.300Z,16.73
2018-11-22T14:03:59.159Z,20.13
2018-11-22T14:06:27.843Z,19.90
2018-11-22T14:08:56.594Z,20.17
2018-11-22T14:11:25.085Z,18.83
2018-11-22T14:13:53.658Z,20.77
2018-11-22T14:16:22.232Z,21.97
2018-11-22T14:18:50.811Z,22.20
2018-11-22T14:21:19.527Z,20.60
2018-11-22T14:23:48.205Z,21.10
2018-11-22T14:26:16.954Z,21.00
2018-11-22T14:28:45.463Z,22.13
2018-11-22T14:31:13.934Z,20.23
2018-11-22T14:33:44.375Z,21.47
2018-11-22T14:36:13.082Z,21.07
2018-11-22T14:38:41.590Z,20.73
2018-11-22T14:41:10.137Z,21.77
2018-11-22T14:43:38.702Z,22.43
2018-11-22T14:46:07.174Z,20.10
2018-11-22T14:48:35.701Z,24.73
2018-11-22T14:51:43.235Z,21.77
2018-11-22T14:54:11.730Z,22.80
2018-11-22T14:56:40.227Z,24.80
2018-11-22T14:59:08.764Z,24.90
2018-11-22T15:01:37.450Z,24.80
2018-11-22T15:04:06.083Z,23.97
2018-11-22T15:06:34.590Z,23.70
2018-11-22T15:09:03.212Z,27.03
2018-11-22T15:11:32.761Z,22.83
2018-11-22T15:14:01.234Z,25.47
2018-11-22T15:16:29.751Z,28.63
2018-11-22T15:18:58.475Z,28.47
2018-11-22T15:21:26.989Z,28.03
2018-11-22T15:23:55.480Z,25.87
2018-11-22T15:26:23.922Z,27.10
2018-11-22T15:28:52.493Z,23.17
2018-11-22T15:31:20.971Z,24.93
2018-11-22T15:33:49.492Z,27.43
2018-11-22T15:36:18.032Z,26.00
2018-11-22T15:38:46.583Z,28.73
2018-11-22T15:41:15.067Z,29.70
2018-11-22T15:43:43.579Z,28.50
2018-11-22T15:46:12.062Z,30.30
2018-11-22T15:48:40.663Z,27.33
2018-11-22T15:51:09.164Z,26.93
2018-11-22T15:53:38.536Z,27.53
2018-11-22T15:56:07.025Z,28.00
2018-11-22T15:58:35.555Z,25.50
2018-11-22T16:01:04.035Z,28.53
2018-11-22T16:03:32.533Z,30.43
2018-11-22T16:06:01.026Z,28.70
2018-11-22T16:08:29.558Z,30.27
2018-11-22T16:10:58.069Z,29.10
2018-11-22T16:13:26.608Z,29.43
2018-11-22T16:15:55.527Z,29.77
2018-11-22T16:18:24.103Z,30.67
2018-11-22T16:20:52.690Z,27.30
2018-11-22T16:23:21.204Z,28.57
2018-11-22T16:25:49.669Z,29.00
2018-11-22T16:28:18.223Z,30.93
2018-11-22T16:30:46.870Z,29.80
2018-11-22T16:33:16.130Z,29.27
2018-11-22T16:35:44.994Z,30.93
2018-11-22T16:38:13.562Z,31.43
2018-11-22T16:40:42.101Z,27.10
2018-11-22T16:43:10.725Z,29.57
2018-11-22T16:45:39.702Z,31.17
2018-11-22T16:48:09.898Z,32.67
2018-11-22T16:50:39.567Z,31.27
2018-11-22T16:53:08.133Z,32.73
2018-11-22T16:55:36.638Z,31.50
2018-11-22T16:58:06.587Z,37.33
2018-11-22T17:00:38.204Z,36.33
2018-11-22T17:03:08.849Z,31.77
2018-11-22T17:05:38.342Z,32.33
2018-11-22T17:08:09.007Z,30.13
2018-11-22T17:10:38.231Z,31.03
2018-11-22T17:13:07.231Z,37.73
2018-11-22T17:15:37.270Z,40.70
2018-11-22T17:19:30.490Z,41.97
2018-11-22T17:21:59.103Z,40.40
2018-11-22T17:24:27.611Z,38.63
2018-11-22T17:26:56.230Z,39.17
2018-11-22T17:29:25.434Z,38.30
2018-11-22T17:31:54.031Z,39.27
2018-11-22T17:34:22.638Z,32.07
2018-11-22T17:36:51.415Z,33.93
2018-11-22T17:39:20.620Z,37.17
2018-11-22T17:41:56.128Z,37.23
2018-11-22T17:44:24.708Z,36.70
2018-11-22T17:46:53.445Z,36.13
2018-11-22T17:49:22.094Z,36.70
2018-11-22T17:51:50.649Z,35.97
2018-11-22T17:54:19.291Z,33.47
2018-11-22T17:56:47.754Z,37.03
2018-11-22T17:59:16.367Z,36.33
2018-11-22T18:01:45.180Z,37.73
2018-11-22T18:04:14.210Z,38.40
2018-11-22T18:06:42.776Z,35.83
2018-11-22T18:09:11.953Z,37.40
2018-11-22T18:11:41.125Z,35.43
2018-11-22T18:14:09.871Z,37.10
2018-11-22T18:16:38.743Z,37.00
2018-11-22T18:19:07.338Z,36.20
2018-11-22T18:21:36.770Z,38.97
2018-11-22T18:24:05.537Z,37.03
2018-11-22T18:26:34.127Z,38.43
2018-11-22T18:29:03.035Z,36.93
2018-11-22T18:31:31.604Z,33.17
2018-11-22T18:34:00.450Z,36.17
2018-11-22T18:36:29.006Z,37.87
2018-11-22T18:38:57.591Z,38.37
2018-11-22T18:41:26.114Z,40.00
2018-11-22T18:43:54.700Z,35.57
2018-11-22T18:46:23.218Z,40.23
2018-11-22T18:48:51.886Z,38.10
2018-11-22T18:51:20.476Z,39.67
2018-11-22T18:53:49.202Z,39.10
2018-11-22T18:56:17.870Z,36.23
2018-11-22T18:58:46.427Z,38.13
2018-11-22T19:01:15.117Z,35.90
2018-11-22T19:03:43.742Z,34.67
2018-11-22T19:06:12.598Z,37.20
2018-11-22T19:08:41.159Z,35.47
2018-11-22T19:11:09.844Z,38.73
2018-11-22T19:13:38.390Z,36.77
2018-11-22T19:16:07.121Z,36.80
2018-11-22T19:18:35.647Z,39.83
2018-11-22T19:21:04.221Z,38.23
2018-11-22T19:23:40.110Z,35.43
2018-11-22T19:26:08.964Z,39.73
2018-11-22T19:28:37.784Z,38.13
2018-11-22T19:31:06.903Z,43.20
2018-11-22T19:33:35.435Z,38.37
2018-11-22T19:36:05.028Z,39.10
2018-11-22T19:38:33.646Z,36.20
2018-11-22T19:41:05.233Z,38.00
2018-11-22T19:43:33.812Z,39.13
2018-11-22T19:46:02.398Z,36.60
2018-11-22T19:48:30.991Z,39.17
2018-11-22T19:51:05.638Z,36.50
2018-11-22T19:53:28.199Z,37.93
2018-11-22T19:55:56.767Z,32.83
2018-11-22T19:58:26.885Z,35.47
2018-11-22T20:00:55.437Z,36.73
2018-11-22T20:03:24.047Z,34.90
2018-11-22T20:05:52.591Z,37.87
2018-11-22T20:08:21.134Z,33.87
2018-11-22T20:10:50.102Z,34.87
2018-11-22T20:13:18.667Z,30.20
2018-11-22T20:15:47.165Z,30.67
2018-11-22T20:18:15.725Z,37.00
2018-11-22T20:20:49.892Z,33.57
2018-11-22T20:23:17.623Z,34.80
2018-11-22T20:25:43.116Z,35.23
2018-11-22T20:28:11.635Z,34.37
2018-11-22T20:30:41.823Z,32.97
2018-11-22T20:33:10.298Z,34.90
2018-11-22T20:35:38.892Z,33.60
2018-11-22T20:38:07.559Z,35.87
2018-11-22T20:40:36.087Z,36.13
2018-11-22T20:43:04.970Z,34.00
2018-11-22T20:45:36.909Z,34.10
2018-11-22T20:48:04.430Z,40.67
2018-11-22T20:50:33.558Z,37.90
2018-11-22T20:53:02.059Z,42.20
2018-11-22T20:55:32.047Z,36.03
2018-11-22T20:58:02.278Z,37.37
2018-11-22T21:00:32.504Z,37.87
2018-11-22T21:03:01.018Z,38.27
2018-11-22T21:05:30.175Z,35.97
2018-11-22T21:07:58.667Z,35.60
2018-11-22T21:10:29.597Z,33.30
2018-11-22T21:12:58.112Z,32.50
2018-11-22T21:15:27.994Z,35.70
2018-11-22T21:17:59.961Z,34.97
2018-11-22T21:20:31.309Z,32.23
2018-11-22T21:22:59.810Z,36.43
2018-11-22T21:25:28.293Z,36.20
2018-11-22T21:27:56.895Z,36.57
2018-11-22T21:30:28.114Z,35.70
2018-11-22T21:32:59.127Z,36.00
2018-11-22T21:35:27.691Z,32.97
2018-11-22T21:37:57.031Z,33.50
2018-11-22T21:40:26.191Z,32.40
2018-11-22T21:42:54.738Z,33.40
2018-11-22T21:45:40.147Z,34.40
2018-11-22T21:48:08.715Z,34.00
2018-11-22T21:50:37.213Z,35.43
2018-11-22T21:53:05.817Z,31.57
2018-11-22T21:55:34.384Z,38.73
2018-11-22T21:58:03.775Z,32.67
2018-11-22T22:00:38.143Z,33.00
2018-11-22T22:03:08.183Z,33.60
2018-11-22T22:05:36.806Z,35.10
2018-11-22T22:08:07.317Z,32.83
2018-11-22T22:10:35.868Z,31.93
2018-11-22T22:13:04.646Z,32.63
2018-11-22T22:15:34.218Z,33.93
2018-11-22T22:18:02.745Z,35.07
2018-11-22T22:20:34.166Z,34.57
2018-11-22T22:23:02.769Z,33.80
2018-11-22T22:25:32.077Z,36.40
2018-11-22T22:28:01.069Z,35.63
2018-11-22T22:30:31.250Z,36.30
2018-11-22T22:33:01.288Z,41.40
2018-11-22T22:35:29.777Z,42.87
2018-11-22T22:37:58.295Z,40.57
2018-11-22T22:40:28.038Z,41.27
2018-11-22T22:42:57.366Z,42.67
2018-11-22T22:45:26.944Z,39.47
2018-11-22T22:47:55.526Z,60.27
2018-11-22T22:50:27.644Z,93.57
2018-11-22T22:52:57.286Z,82.87
2018-11-22T22:55:25.927Z,46.10
2018-11-22T22:57:54.502Z,49.17
2018-11-22T23:00:30.466Z,45.27
2018-11-22T23:03:02.451Z,49.23
2018-11-22T23:05:31.388Z,51.60
2018-11-22T23:07:59.912Z,48.13
2018-11-22T23:10:28.446Z,43.10
2018-11-22T23:12:59.625Z,46.57
2018-11-22T23:15:29.195Z,41.73
2018-11-22T23:17:57.733Z,41.33
2018-11-22T23:20:27.632Z,45.93
2018-11-22T23:22:56.725Z,46.73
2018-11-22T23:25:26.314Z,47.13
2018-11-22T23:27:54.803Z,43.17
2018-11-22T23:30:25.993Z,40.00
2018-11-22T23:33:01.908Z,37.70
2018-11-22T23:35:30.445Z,38.67
2018-11-22T23:37:58.924Z,40.50
2018-11-22T23:40:28.642Z,38.13
2018-11-22T23:42:57.247Z,35.77
2018-11-22T23:45:30.685Z,35.93
2018-11-22T23:47:59.190Z,35.63
2018-11-22T23:50:31.037Z,34.57
2018-11-22T23:53:00.667Z,36.40
2018-11-22T23:55:31.113Z,33.53
2018-11-22T23:57:59.623Z,35.53
